Terminal Aerodrome Forecast
Issued by NWS Pocatello, ID

Home | Current Version | Previous Version | Text Only | Print | Product List | Glossary On
Versions: 1 2 3 4 5 6 7 8 9 10 11 12 13 14 15 16 17 18
000
FTUS45 KPIH 211700
TAFBYI
TAF
KBYI 211720Z 2118/2218 28020G30KT P6SM -SHRA SCT015 BKN035 OVC050
     FM211900 28020G30KT P6SM SCT040
     FM220000 27010G20KT P6SM FEW060 SCT160
     FM220200 20008KT P6SM FEW050
     FM221500 07008KT P6SM FEW040 SCT090 BKN120=

USA.gov is the U.S. government's official web portal to all federal, state and local government web resources and services.